sensor_id;sensor_type;location;lat;lon;timestamp;pressure;altitude;pressure_sealevel;temperature;humidity
21234;BME280;10774;42.178;26.578;2023-06-14T00:00:11;99682.09;;;18.88;100.00
21234;BME280;10774;42.178;26.578;2023-06-14T00:02:38;99667.78;;;18.86;100.00
21234;BME280;10774;42.178;26.578;2023-06-14T00:05:05;99677.72;;;18.95;100.00
21234;BME280;10774;42.178;26.578;2023-06-14T00:07:35;99663.97;;;18.97;100.00
21234;BME280;10774;42.178;26.578;2023-06-14T00:10:02;99656.38;;;19.08;100.00
21234;BME280;10774;42.178;26.578;2023-06-14T00:12:27;99663.56;;;19.10;100.00
21234;BME280;10774;42.178;26.578;2023-06-14T00:14:53;99664.50;;;19.00;100.00
21234;BME280;10774;42.178;26.578;2023-06-14T00:17:18;99658.00;;;18.22;100.00
21234;BME280;10774;42.178;26.578;2023-06-14T00:19:43;99670.97;;;18.28;100.00
21234;BME280;10774;42.178;26.578;2023-06-14T00:22:09;99658.00;;;18.22;100.00
21234;BME280;10774;42.178;26.578;2023-06-14T00:24:34;99672.19;;;17.61;100.00
21234;BME280;10774;42.178;26.578;2023-06-14T00:27:00;99655.91;;;17.23;100.00
21234;BME280;10774;42.178;26.578;2023-06-14T00:29:25;99670.28;;;17.71;100.00
21234;BME280;10774;42.178;26.578;2023-06-14T00:31:51;99658.13;;;18.02;100.00
21234;BME280;10774;42.178;26.578;2023-06-14T00:34:16;99662.22;;;17.89;100.00
21234;BME280;10774;42.178;26.578;2023-06-14T00:36:42;99678.38;;;17.53;100.00
21234;BME280;10774;42.178;26.578;2023-06-14T00:39:07;99657.28;;;17.37;100.00
21234;BME280;10774;42.178;26.578;2023-06-14T00:41:32;99676.94;;;17.02;100.00
21234;BME280;10774;42.178;26.578;2023-06-14T00:43:58;99679.06;;;17.18;100.00
21234;BME280;10774;42.178;26.578;2023-06-14T00:46:25;99670.06;;;17.55;100.00
21234;BME280;10774;42.178;26.578;2023-06-14T00:48:50;99651.72;;;17.76;100.00
21234;BME280;10774;42.178;26.578;2023-06-14T00:51:16;99647.19;;;17.94;100.00
21234;BME280;10774;42.178;26.578;2023-06-14T00:53:42;99658.44;;;17.99;100.00
21234;BME280;10774;42.178;26.578;2023-06-14T00:56:12;99655.41;;;18.02;100.00
21234;BME280;10774;42.178;26.578;2023-06-14T00:58:39;99659.56;;;17.79;100.00
21234;BME280;10774;42.178;26.578;2023-06-14T01:01:04;99669.25;;;17.82;100.00
21234;BME280;10774;42.178;26.578;2023-06-14T01:03:30;99671.91;;;17.91;100.00
21234;BME280;10774;42.178;26.578;2023-06-14T01:06:09;99668.00;;;17.76;100.00
21234;BME280;10774;42.178;26.578;2023-06-14T01:11:50;99659.13;;;17.84;100.00
21234;BME280;10774;42.178;26.578;2023-06-14T01:14:19;99664.78;;;17.90;100.00
21234;BME280;10774;42.178;26.578;2023-06-14T01:16:46;99665.59;;;18.00;100.00
21234;BME280;10774;42.178;26.578;2023-06-14T01:19:13;99675.28;;;18.03;100.00
21234;BME280;10774;42.178;26.578;2023-06-14T01:21:40;99664.53;;;17.84;100.00
21234;BME280;10774;42.178;26.578;2023-06-14T01:24:09;99664.50;;;17.93;100.00
21234;BME280;10774;42.178;26.578;2023-06-14T01:26:36;99673.63;;;17.92;100.00
21234;BME280;10774;42.178;26.578;2023-06-14T01:29:03;99671.78;;;17.93;100.00
21234;BME280;10774;42.178;26.578;2023-06-14T01:31:29;99661.44;;;17.69;100.00
21234;BME280;10774;42.178;26.578;2023-06-14T01:34:05;99648.03;;;17.67;100.00
21234;BME280;10774;42.178;26.578;2023-06-14T01:36:30;99664.56;;;17.46;100.00
21234;BME280;10774;42.178;26.578;2023-06-14T01:38:56;99659.44;;;17.34;100.00
21234;BME280;10774;42.178;26.578;2023-06-14T01:41:23;99666.34;;;17.56;100.00
21234;BME280;10774;42.178;26.578;2023-06-14T01:43:49;99669.34;;;17.62;100.00
21234;BME280;10774;42.178;26.578;2023-06-14T01:46:15;99654.97;;;17.52;100.00
21234;BME280;10774;42.178;26.578;2023-06-14T01:48:42;99655.44;;;17.38;100.00
21234;BME280;10774;42.178;26.578;2023-06-14T01:51:08;99648.75;;;17.32;100.00
21234;BME280;10774;42.178;26.578;2023-06-14T01:53:34;99640.00;;;17.38;100.00
21234;BME280;10774;42.178;26.578;2023-06-14T01:55:59;99652.00;;;17.45;100.00
21234;BME280;10774;42.178;26.578;2023-06-14T01:58:26;99661.13;;;17.44;100.00
21234;BME280;10774;42.178;26.578;2023-06-14T02:00:52;99659.13;;;17.46;100.00
21234;BME280;10774;42.178;26.578;2023-06-14T02:03:20;99661.03;;;17.27;100.00
21234;BME280;10774;42.178;26.578;2023-06-14T02:05:46;99663.91;;;17.25;100.00
21234;BME280;10774;42.178;26.578;2023-06-14T02:08:11;99660.19;;;17.26;100.00
21234;BME280;10774;42.178;26.578;2023-06-14T02:10:37;99672.94;;;17.16;100.00
21234;BME280;10774;42.178;26.578;2023-06-14T02:13:02;99662.50;;;17.21;100.00
21234;BME280;10774;42.178;26.578;2023-06-14T02:15:28;99663.91;;;17.25;100.00
21234;BME280;10774;42.178;26.578;2023-06-14T02:17:59;99656.75;;;17.24;100.00
21234;BME280;10774;42.178;26.578;2023-06-14T02:20:24;99654.88;;;17.34;100.00
21234;BME280;10774;42.178;26.578;2023-06-14T02:22:50;99653.06;;;17.25;100.00
21234;BME280;10774;42.178;26.578;2023-06-14T02:25:15;99669.56;;;17.41;100.00
21234;BME280;10774;42.178;26.578;2023-06-14T02:27:40;99661.31;;;17.33;100.00
21234;BME280;10774;42.178;26.578;2023-06-14T02:30:06;99669.66;;;17.03;100.00
21234;BME280;10774;42.178;26.578;2023-06-14T02:32:32;99644.56;;;17.01;100.00
21234;BME280;10774;42.178;26.578;2023-06-14T02:35:00;99651.44;;;16.66;100.00
21234;BME280;10774;42.178;26.578;2023-06-14T02:37:26;99669.41;;;16.86;100.00
21234;BME280;10774;42.178;26.578;2023-06-14T02:39:51;99691.66;;;16.99;100.00
21234;BME280;10774;42.178;26.578;2023-06-14T02:42:17;99668.97;;;17.01;100.00
21234;BME280;10774;42.178;26.578;2023-06-14T02:44:42;99680.97;;;16.69;100.00
21234;BME280;10774;42.178;26.578;2023-06-14T02:47:09;99695.81;;;16.94;100.00
21234;BME280;10774;42.178;26.578;2023-06-14T02:49:34;99688.97;;;15.72;100.00
21234;BME280;10774;42.178;26.578;2023-06-14T02:52:00;99706.91;;;15.73;100.00
21234;BME280;10774;42.178;26.578;2023-06-14T02:54:25;99698.03;;;15.71;100.00
21234;BME280;10774;42.178;26.578;2023-06-14T02:56:50;99694.72;;;16.08;100.00
21234;BME280;10774;42.178;26.578;2023-06-14T02:59:16;99698.19;;;16.19;100.00
21234;BME280;10774;42.178;26.578;2023-06-14T03:01:42;99705.63;;;16.37;100.00
21234;BME280;10774;42.178;26.578;2023-06-14T03:04:08;99679.38;;;16.18;100.00
21234;BME280;10774;42.178;26.578;2023-06-14T03:06:34;99694.72;;;15.88;100.00
21234;BME280;10774;42.178;26.578;2023-06-14T03:09:00;99683.94;;;16.17;100.00
21234;BME280;10774;42.178;26.578;2023-06-14T03:11:26;99689.66;;;16.24;100.00
21234;BME280;10774;42.178;26.578;2023-06-14T03:13:53;99698.78;;;16.42;100.00
21234;BME280;10774;42.178;26.578;2023-06-14T03:16:19;99700.22;;;16.66;100.00
21234;BME280;10774;42.178;26.578;2023-06-14T03:18:45;99661.44;;;16.56;100.00
21234;BME280;10774;42.178;26.578;2023-06-14T03:21:10;99688.81;;;16.82;100.00
21234;BME280;10774;42.178;26.578;2023-06-14T03:23:36;99684.66;;;16.19;100.00
21234;BME280;10774;42.178;26.578;2023-06-14T03:26:01;99701.56;;;16.02;100.00
21234;BME280;10774;42.178;26.578;2023-06-14T03:28:27;99702.03;;;16.27;100.00
21234;BME280;10774;42.178;26.578;2023-06-14T03:30:52;99695.91;;;16.34;100.00
21234;BME280;10774;42.178;26.578;2023-06-14T03:33:18;99707.38;;;16.67;100.00
21234;BME280;10774;42.178;26.578;2023-06-14T03:35:43;99695.53;;;16.68;100.00
21234;BME280;10774;42.178;26.578;2023-06-14T03:38:09;99700.53;;;16.82;100.00
21234;BME280;10774;42.178;26.578;2023-06-14T03:40:34;99699.06;;;16.49;100.00
21234;BME280;10774;42.178;26.578;2023-06-14T03:43:00;99693.06;;;16.65;100.00
21234;BME280;10774;42.178;26.578;2023-06-14T03:45:25;99690.69;;;16.62;100.00
21234;BME280;10774;42.178;26.578;2023-06-14T03:47:51;99693.09;;;15.76;100.00
21234;BME280;10774;42.178;26.578;2023-06-14T03:50:17;99702.56;;;16.01;100.00
21234;BME280;10774;42.178;26.578;2023-06-14T03:52:43;99700.22;;;16.66;100.00
21234;BME280;10774;42.178;26.578;2023-06-14T03:55:09;99676.84;;;16.84;100.00
21234;BME280;10774;42.178;26.578;2023-06-14T03:57:35;99694.22;;;16.91;100.00
21234;BME280;10774;42.178;26.578;2023-06-14T04:00:01;99694.63;;;17.16;100.00
21234;BME280;10774;42.178;26.578;2023-06-14T04:02:26;99687.69;;;16.84;100.00
21234;BME280;10774;42.178;26.578;2023-06-14T04:04:54;99699.38;;;16.94;100.00
21234;BME280;10774;42.178;26.578;2023-06-14T04:07:20;99710.66;;;16.99;100.00
21234;BME280;10774;42.178;26.578;2023-06-14T04:09:45;99698.22;;;17.07;100.00
21234;BME280;10774;42.178;26.578;2023-06-14T04:12:11;99709.44;;;17.31;100.00
21234;BME280;10774;42.178;26.578;2023-06-14T04:14:37;99707.31;;;17.25;100.00
21234;BME280;10774;42.178;26.578;2023-06-14T04:17:03;99707.06;;;16.51;100.00
21234;BME280;10774;42.178;26.578;2023-06-14T04:19:28;99720.47;;;17.20;100.00
21234;BME280;10774;42.178;26.578;2023-06-14T04:21:54;99722.16;;;17.31;100.00
21234;BME280;10774;42.178;26.578;2023-06-14T04:24:20;99719.31;;;16.64;100.00
21234;BME280;10774;42.178;26.578;2023-06-14T04:26:45;99708.75;;;17.19;100.00
21234;BME280;10774;42.178;26.578;2023-06-14T04:29:13;99715.31;;;17.27;100.00
21234;BME280;10774;42.178;26.578;2023-06-14T04:31:43;99719.91;;;17.07;100.00
21234;BME280;10774;42.178;26.578;2023-06-14T04:34:09;99722.44;;;17.18;100.00
21234;BME280;10774;42.178;26.578;2023-06-14T04:36:42;99733.31;;;17.65;100.00
21234;BME280;10774;42.178;26.578;2023-06-14T04:39:15;99716.56;;;17.79;100.00
21234;BME280;10774;42.178;26.578;2023-06-14T04:41:40;99721.44;;;17.75;100.00
21234;BME280;10774;42.178;26.578;2023-06-14T04:44:06;99731.00;;;17.70;100.00
21234;BME280;10774;42.178;26.578;2023-06-14T04:46:32;99737.09;;;17.91;100.00
21234;BME280;10774;42.178;26.578;2023-06-14T04:48:58;99739.88;;;18.09;100.00
21234;BME280;10774;42.178;26.578;2023-06-14T04:51:27;99748.91;;;18.00;100.00
21234;BME280;10774;42.178;26.578;2023-06-14T04:53:58;99751.94;;;17.97;100.00
21234;BME280;10774;42.178;26.578;2023-06-14T04:56:26;99763.25;;;18.20;100.00
21234;BME280;10774;42.178;26.578;2023-06-14T04:58:52;99767.47;;;18.32;100.00
21234;BME280;10774;42.178;26.578;2023-06-14T05:01:19;99766.25;;;18.72;100.00
21234;BME280;10774;42.178;26.578;2023-06-14T05:03:46;99766.63;;;18.77;100.00
21234;BME280;10774;42.178;26.578;2023-06-14T05:06:13;99762.97;;;18.86;100.00
21234;BME280;10774;42.178;26.578;2023-06-14T05:08:39;99750.75;;;19.26;100.00
21234;BME280;10774;42.178;26.578;2023-06-14T05:11:04;99758.09;;;19.33;100.00
21234;BME280;10774;42.178;26.578;2023-06-14T05:13:30;99764.81;;;19.21;100.00
21234;BME280;10774;42.178;26.578;2023-06-14T05:15:58;99751.72;;;18.99;100.00
21234;BME280;10774;42.178;26.578;2023-06-14T05:18:24;99762.91;;;18.78;100.00
21234;BME280;10774;42.178;26.578;2023-06-14T05:20:50;99771.59;;;18.99;100.00
21234;BME280;10774;42.178;26.578;2023-06-14T05:23:16;99765.06;;;18.92;100.00
21234;BME280;10774;42.178;26.578;2023-06-14T05:25:45;99778.91;;;18.99;100.00
21234;BME280;10774;42.178;26.578;2023-06-14T05:28:11;99776.84;;;19.19;100.00
21234;BME280;10774;42.178;26.578;2023-06-14T05:30:38;99762.91;;;19.40;100.00
21234;BME280;10774;42.178;26.578;2023-06-14T05:33:04;99775.78;;;19.55;100.00
21234;BME280;10774;42.178;26.578;2023-06-14T05:35:30;99779.22;;;19.57;100.00
21234;BME280;10774;42.178;26.578;2023-06-14T05:37:55;99782.22;;;20.06;100.00
21234;BME280;10774;42.178;26.578;2023-06-14T05:40:21;99784.28;;;20.04;100.00
21234;BME280;10774;42.178;26.578;2023-06-14T05:42:47;99778.38;;;19.83;100.00
21234;BME280;10774;42.178;26.578;2023-06-14T05:45:12;99788.41;;;19.56;100.00
21234;BME280;10774;42.178;26.578;2023-06-14T05:47:39;99788.72;;;20.14;100.00
21234;BME280;10774;42.178;26.578;2023-06-14T05:50:05;99803.59;;;20.53;100.00
21234;BME280;10774;42.178;26.578;2023-06-14T05:52:30;99784.81;;;20.50;100.00
21234;BME280;10774;42.178;26.578;2023-06-14T05:54:56;99789.19;;;20.94;100.00
21234;BME280;10774;42.178;26.578;2023-06-14T05:57:22;99777.06;;;21.12;100.00
21234;BME280;10774;42.178;26.578;2023-06-14T05:59:47;99794.91;;;20.24;100.00
21234;BME280;10774;42.178;26.578;2023-06-14T06:02:13;99792.47;;;20.13;100.00
21234;BME280;10774;42.178;26.578;2023-06-14T06:04:38;99795.97;;;20.81;100.00
21234;BME280;10774;42.178;26.578;2023-06-14T06:07:04;99783.63;;;20.53;100.00
21234;BME280;10774;42.178;26.578;2023-06-14T06:09:30;99794.13;;;20.98;100.00
21234;BME280;10774;42.178;26.578;2023-06-14T06:11:56;99767.28;;;20.19;100.00
21234;BME280;10774;42.178;26.578;2023-06-14T06:14:21;99778.47;;;20.42;100.00
21234;BME280;10774;42.178;26.578;2023-06-14T06:16:46;99799.41;;;20.92;100.00
21234;BME280;10774;42.178;26.578;2023-06-14T06:19:12;99792.78;;;21.10;100.00
21234;BME280;10774;42.178;26.578;2023-06-14T06:21:37;99784.59;;;20.44;100.00
21234;BME280;10774;42.178;26.578;2023-06-14T06:24:04;99785.84;;;20.49;100.00
21234;BME280;10774;42.178;26.578;2023-06-14T06:26:31;99800.34;;;20.58;100.00
21234;BME280;10774;42.178;26.578;2023-06-14T06:28:57;99786.22;;;20.71;100.00
21234;BME280;10774;42.178;26.578;2023-06-14T06:31:23;99790.66;;;20.63;100.00
21234;BME280;10774;42.178;26.578;2023-06-14T06:33:49;99796.75;;;21.32;100.00
21234;BME280;10774;42.178;26.578;2023-06-14T06:36:14;99798.72;;;20.98;100.00
21234;BME280;10774;42.178;26.578;2023-06-14T06:38:40;99792.97;;;21.33;99.09
21234;BME280;10774;42.178;26.578;2023-06-14T06:41:06;99792.78;;;21.67;95.70
21234;BME280;10774;42.178;26.578;2023-06-14T06:43:31;99784.09;;;21.64;93.52
21234;BME280;10774;42.178;26.578;2023-06-14T06:45:56;99801.66;;;22.33;90.85
21234;BME280;10774;42.178;26.578;2023-06-14T06:48:22;99793.78;;;21.75;91.90
21234;BME280;10774;42.178;26.578;2023-06-14T06:50:47;99769.91;;;21.69;96.11
21234;BME280;10774;42.178;26.578;2023-06-14T06:53:13;99796.72;;;22.37;91.12
21234;BME280;10774;42.178;26.578;2023-06-14T06:55:38;99791.31;;;22.12;89.72
21234;BME280;10774;42.178;26.578;2023-06-14T06:58:03;99794.31;;;21.78;91.48
21234;BME280;10774;42.178;26.578;2023-06-14T07:00:30;99770.91;;;21.76;87.88
21234;BME280;10774;42.178;26.578;2023-06-14T07:02:56;99781.47;;;21.87;89.21
21234;BME280;10774;42.178;26.578;2023-06-14T07:05:22;99781.25;;;22.05;85.65
21234;BME280;10774;42.178;26.578;2023-06-14T07:07:48;99790.59;;;22.27;82.26
21234;BME280;10774;42.178;26.578;2023-06-14T07:10:13;99788.75;;;22.89;80.53
21234;BME280;10774;42.178;26.578;2023-06-14T07:12:39;99790.09;;;22.85;74.16
21234;BME280;10774;42.178;26.578;2023-06-14T07:15:08;99774.16;;;22.97;77.26
21234;BME280;10774;42.178;26.578;2023-06-14T07:17:34;99780.63;;;23.42;75.15
21234;BME280;10774;42.178;26.578;2023-06-14T07:19:59;99779.50;;;23.13;74.42
21234;BME280;10774;42.178;26.578;2023-06-14T07:22:26;99785.94;;;22.66;76.85
21234;BME280;10774;42.178;26.578;2023-06-14T07:24:51;99785.09;;;22.66;68.12
21234;BME280;10774;42.178;26.578;2023-06-14T07:27:17;99791.50;;;22.89;68.33
21234;BME280;10774;42.178;26.578;2023-06-14T07:29:42;99786.72;;;22.52;67.76
21234;BME280;10774;42.178;26.578;2023-06-14T07:32:08;99799.69;;;22.58;68.88
21234;BME280;10774;42.178;26.578;2023-06-14T07:34:33;99789.94;;;22.56;69.72
21234;BME280;10774;42.178;26.578;2023-06-14T07:36:58;99786.78;;;22.98;67.97
21234;BME280;10774;42.178;26.578;2023-06-14T07:39:24;99787.72;;;23.36;66.25
21234;BME280;10774;42.178;26.578;2023-06-14T07:41:49;99776.56;;;22.92;65.25
21234;BME280;10774;42.178;26.578;2023-06-14T07:44:15;99787.09;;;23.03;63.52
21234;BME280;10774;42.178;26.578;2023-06-14T07:46:41;99775.56;;;22.85;64.38
21234;BME280;10774;42.178;26.578;2023-06-14T07:49:06;99773.31;;;23.34;65.87
21234;BME280;10774;42.178;26.578;2023-06-14T07:51:32;99782.69;;;23.40;64.66
21234;BME280;10774;42.178;26.578;2023-06-14T07:53:59;99779.25;;;23.61;65.26
21234;BME280;10774;42.178;26.578;2023-06-14T07:56:26;99778.06;;;23.63;63.52
21234;BME280;10774;42.178;26.578;2023-06-14T07:58:51;99782.53;;;23.79;63.26
21234;BME280;10774;42.178;26.578;2023-06-14T08:01:17;99763.88;;;24.04;62.10
21234;BME280;10774;42.178;26.578;2023-06-14T08:03:44;99756.69;;;24.33;61.24
21234;BME280;10774;42.178;26.578;2023-06-14T08:06:10;99763.16;;;24.10;61.33
21234;BME280;10774;42.178;26.578;2023-06-14T08:08:35;99773.16;;;24.33;61.91
21234;BME280;10774;42.178;26.578;2023-06-14T08:11:01;99756.69;;;24.33;60.47
21234;BME280;10774;42.178;26.578;2023-06-14T08:13:26;99772.47;;;25.18;61.50
21234;BME280;10774;42.178;26.578;2023-06-14T08:15:51;99764.50;;;24.65;58.39
21234;BME280;10774;42.178;26.578;2023-06-14T08:18:17;99758.69;;;24.09;59.28
21234;BME280;10774;42.178;26.578;2023-06-14T08:20:42;99761.84;;;24.06;60.43
21234;BME280;10774;42.178;26.578;2023-06-14T08:23:10;99776.31;;;24.00;59.87
21234;BME280;10774;42.178;26.578;2023-06-14T08:25:35;99767.88;;;23.87;60.81
21234;BME280;10774;42.178;26.578;2023-06-14T08:28:01;99779.50;;;23.89;60.20
21234;BME280;10774;42.178;26.578;2023-06-14T08:30:26;99758.16;;;23.61;61.15
21234;BME280;10774;42.178;26.578;2023-06-14T08:32:52;99746.91;;;23.94;59.69
21234;BME280;10774;42.178;26.578;2023-06-14T08:35:20;99770.47;;;24.69;59.39
21234;BME280;10774;42.178;26.578;2023-06-14T08:37:46;99758.97;;;24.44;58.35
21234;BME280;10774;42.178;26.578;2023-06-14T08:40:22;99748.47;;;24.33;58.34
21234;BME280;10774;42.178;26.578;2023-06-14T08:42:54;99763.03;;;24.48;58.24
21234;BME280;10774;42.178;26.578;2023-06-14T08:45:24;99751.22;;;25.26;56.83
21234;BME280;10774;42.178;26.578;2023-06-14T08:47:50;99769.75;;;25.46;57.88
21234;BME280;10774;42.178;26.578;2023-06-14T08:50:23;99761.16;;;26.12;56.22
21234;BME280;10774;42.178;26.578;2023-06-14T08:52:54;99764.63;;;25.92;54.26
21234;BME280;10774;42.178;26.578;2023-06-14T08:55:23;99758.53;;;25.19;55.95
21234;BME280;10774;42.178;26.578;2023-06-14T08:57:51;99746.34;;;25.78;55.01
21234;BME280;10774;42.178;26.578;2023-06-14T09:00:19;99762.13;;;26.39;54.75
21234;BME280;10774;42.178;26.578;2023-06-14T09:02:46;99755.28;;;26.69;52.31
21234;BME280;10774;42.178;26.578;2023-06-14T09:05:15;99755.84;;;27.46;52.85
21234;BME280;10774;42.178;26.578;2023-06-14T09:07:43;99747.94;;;27.03;49.53
21234;BME280;10774;42.178;26.578;2023-06-14T09:10:13;99746.50;;;27.14;50.20
21234;BME280;10774;42.178;26.578;2023-06-14T09:12:39;99753.94;;;25.76;53.38
21234;BME280;10774;42.178;26.578;2023-06-14T09:15:06;99749.47;;;26.03;53.88
21234;BME280;10774;42.178;26.578;2023-06-14T09:17:34;99745.78;;;26.30;53.25
21234;BME280;10774;42.178;26.578;2023-06-14T09:20:01;99749.91;;;27.42;51.61
21234;BME280;10774;42.178;26.578;2023-06-14T09:22:29;99746.75;;;26.51;49.56
21234;BME280;10774;42.178;26.578;2023-06-14T09:24:55;99762.25;;;26.65;49.76
21234;BME280;10774;42.178;26.578;2023-06-14T09:27:20;99751.19;;;27.53;50.21
21234;BME280;10774;42.178;26.578;2023-06-14T09:29:46;99756.97;;;28.43;48.68
21234;BME280;10774;42.178;26.578;2023-06-14T09:32:11;99761.97;;;27.08;47.94
21234;BME280;10774;42.178;26.578;2023-06-14T09:34:36;99757.53;;;27.07;49.38
21234;BME280;10774;42.178;26.578;2023-06-14T09:37:02;99766.09;;;26.77;50.38
21234;BME280;10774;42.178;26.578;2023-06-14T09:39:27;99761.75;;;27.96;48.41
21234;BME280;10774;42.178;26.578;2023-06-14T09:41:53;99753.28;;;27.51;47.62
21234;BME280;10774;42.178;26.578;2023-06-14T09:44:19;99763.72;;;28.91;48.32
21234;BME280;10774;42.178;26.578;2023-06-14T09:46:45;99748.84;;;29.56;46.45
21234;BME280;10774;42.178;26.578;2023-06-14T09:49:11;99758.13;;;28.66;45.91
21234;BME280;10774;42.178;26.578;2023-06-14T09:51:42;99763.19;;;26.38;50.99
21234;BME280;10774;42.178;26.578;2023-06-14T09:54:14;99758.22;;;26.68;51.67
21234;BME280;10774;42.178;26.578;2023-06-14T09:56:47;99742.53;;;26.48;50.14
21234;BME280;10774;42.178;26.578;2023-06-14T09:59:19;99745.41;;;26.40;50.49
21234;BME280;10774;42.178;26.578;2023-06-14T10:01:47;99742.59;;;26.81;49.96
21234;BME280;10774;42.178;26.578;2023-06-14T10:04:14;99751.19;;;26.45;49.84
21234;BME280;10774;42.178;26.578;2023-06-14T10:06:45;99754.00;;;26.65;50.60
21234;BME280;10774;42.178;26.578;2023-06-14T10:09:12;99738.03;;;27.35;49.08
21234;BME280;10774;42.178;26.578;2023-06-14T10:11:38;99737.38;;;28.51;48.06
21234;BME280;10774;42.178;26.578;2023-06-14T10:14:11;99739.06;;;29.28;46.22
21234;BME280;10774;42.178;26.578;2023-06-14T10:16:49;99734.03;;;29.18;46.26
21234;BME280;10774;42.178;26.578;2023-06-14T10:24:31;99726.69;;;30.84;41.73
21234;BME280;10774;42.178;26.578;2023-06-14T10:26:58;99732.34;;;28.79;42.77
21234;BME280;10774;42.178;26.578;2023-06-14T10:29:25;99707.47;;;27.90;44.76
21234;BME280;10774;42.178;26.578;2023-06-14T10:31:56;99718.50;;;27.90;45.45
21234;BME280;10774;42.178;26.578;2023-06-14T10:37:08;99717.47;;;28.80;45.62
21234;BME280;10774;42.178;26.578;2023-06-14T10:39:43;99722.59;;;29.83;44.72
21234;BME280;10774;42.178;26.578;2023-06-14T10:42:10;99729.50;;;30.66;42.92
21234;BME280;10774;42.178;26.578;2023-06-14T10:47:36;99719.69;;;29.97;40.67
21234;BME280;10774;42.178;26.578;2023-06-14T10:50:10;99724.66;;;30.80;41.41
21234;BME280;10774;42.178;26.578;2023-06-14T10:52:40;99714.00;;;31.07;41.37
21234;BME280;10774;42.178;26.578;2023-06-14T10:55:12;99729.78;;;31.60;40.51
21234;BME280;10774;42.178;26.578;2023-06-14T10:57:51;99718.66;;;31.36;38.17
21234;BME280;10774;42.178;26.578;2023-06-14T11:00:21;99717.84;;;31.06;38.60
21234;BME280;10774;42.178;26.578;2023-06-14T11:11:06;99704.13;;;29.34;42.75
21234;BME280;10774;42.178;26.578;2023-06-14T11:13:32;99689.28;;;29.28;43.61
21234;BME280;10774;42.178;26.578;2023-06-14T11:15:58;99684.69;;;29.84;43.14
21234;BME280;10774;42.178;26.578;2023-06-14T11:18:23;99710.41;;;30.76;41.72
21234;BME280;10774;42.178;26.578;2023-06-14T11:20:55;99696.59;;;31.30;40.03
21234;BME280;10774;42.178;26.578;2023-06-14T11:23:21;99694.81;;;31.82;38.27
21234;BME280;10774;42.178;26.578;2023-06-14T11:25:51;99687.00;;;30.42;39.18
21234;BME280;10774;42.178;26.578;2023-06-14T11:28:17;99679.84;;;31.60;38.94
21234;BME280;10774;42.178;26.578;2023-06-14T11:30:45;99695.25;;;32.03;38.25
21234;BME280;10774;42.178;26.578;2023-06-14T11:33:11;99685.63;;;31.93;38.04
21234;BME280;10774;42.178;26.578;2023-06-14T11:35:42;99690.81;;;30.89;39.62
21234;BME280;10774;42.178;26.578;2023-06-14T11:38:09;99690.13;;;31.06;38.97
21234;BME280;10774;42.178;26.578;2023-06-14T11:40:37;99699.81;;;30.55;39.19
21234;BME280;10774;42.178;26.578;2023-06-14T11:43:03;99696.84;;;29.39;40.47
21234;BME280;10774;42.178;26.578;2023-06-14T11:45:30;99701.84;;;29.74;40.64
21234;BME280;10774;42.178;26.578;2023-06-14T11:47:56;99708.88;;;30.62;39.97
21234;BME280;10774;42.178;26.578;2023-06-14T11:50:22;99703.34;;;31.34;39.77
21234;BME280;10774;42.178;26.578;2023-06-14T11:52:54;99678.63;;;32.31;38.57
21234;BME280;10774;42.178;26.578;2023-06-14T11:55:22;99678.25;;;31.87;37.95
21234;BME280;10774;42.178;26.578;2023-06-14T11:57:47;99680.50;;;32.14;37.95
21234;BME280;10774;42.178;26.578;2023-06-14T12:00:13;99671.88;;;31.75;37.76
21234;BME280;10774;42.178;26.578;2023-06-14T12:02:41;99678.84;;;31.89;37.97
21234;BME280;10774;42.178;26.578;2023-06-14T12:05:07;99683.66;;;32.06;37.57
21234;BME280;10774;42.178;26.578;2023-06-14T12:07:37;99676.25;;;32.23;37.92
21234;BME280;10774;42.178;26.578;2023-06-14T12:12:35;99682.13;;;31.74;37.90
21234;BME280;10774;42.178;26.578;2023-06-14T12:15:03;99665.38;;;31.34;38.40
21234;BME280;10774;42.178;26.578;2023-06-14T12:17:31;99683.72;;;30.15;38.94
21234;BME280;10774;42.178;26.578;2023-06-14T12:19:57;99677.84;;;30.41;40.03
21234;BME280;10774;42.178;26.578;2023-06-14T12:22:22;99668.34;;;28.82;40.39
21234;BME280;10774;42.178;26.578;2023-06-14T12:24:48;99671.59;;;29.11;40.43
21234;BME280;10774;42.178;26.578;2023-06-14T12:27:15;99652.19;;;29.61;41.27
21234;BME280;10774;42.178;26.578;2023-06-14T12:29:44;99667.59;;;30.12;39.10
21234;BME280;10774;42.178;26.578;2023-06-14T12:32:09;99672.44;;;30.46;38.32
21234;BME280;10774;42.178;26.578;2023-06-14T12:34:35;99666.56;;;30.06;38.75
21234;BME280;10774;42.178;26.578;2023-06-14T12:37:01;99663.81;;;30.06;39.29
21234;BME280;10774;42.178;26.578;2023-06-14T12:39:29;99651.09;;;29.99;39.05
21234;BME280;10774;42.178;26.578;2023-06-14T12:41:56;99649.44;;;29.98;40.23
21234;BME280;10774;42.178;26.578;2023-06-14T12:44:22;99658.88;;;30.87;40.83
21234;BME280;10774;42.178;26.578;2023-06-14T12:46:48;99655.28;;;31.21;40.01
21234;BME280;10774;42.178;26.578;2023-06-14T12:49:16;99656.31;;;31.62;38.94
21234;BME280;10774;42.178;26.578;2023-06-14T12:51:42;99645.03;;;32.44;38.29
21234;BME280;10774;42.178;26.578;2023-06-14T12:54:07;99637.22;;;33.03;36.72
21234;BME280;10774;42.178;26.578;2023-06-14T12:56:33;99656.47;;;33.77;35.67
21234;BME280;10774;42.178;26.578;2023-06-14T12:58:58;99642.44;;;34.55;35.25
21234;BME280;10774;42.178;26.578;2023-06-14T13:01:24;99634.34;;;34.31;33.41
21234;BME280;10774;42.178;26.578;2023-06-14T13:03:49;99644.03;;;35.05;33.77
21234;BME280;10774;42.178;26.578;2023-06-14T13:06:21;99650.47;;;34.29;33.73